Glen, Vermont
Current Conditions -  °F | °C
As of 9:55 PM on Wednesday 22 Oct 2014 (Local Time) from KRUT Reporting Station
Overcast Overcast  
Wind Chill: 43°   Ceiling: 2700
Heat Index: 48°   Visibility: 10mi
Dew Point: 43°   Wind: 14mph
Humidity: 82%   Direction: 360°N
Pressure: 30"   Gusts: 24mph
Location:  43.6369°N, 72.9375°W
Report Text: KRUT 230155Z 36012G21KT 10SM OVC027 09/06 A3000 RMK AO1
Loading
Personal Weather Stations






























Interactive Weather Map
Tropical Storm Tracking
New forecast layout! Learn more

10-Day Weather Forecast

Advertisements
Track Severe Weather on mobile